createdAt,value
2023-09-17T00:00:21.078Z,99058.47
2023-09-17T00:02:47.879Z,99055.63
2023-09-17T00:05:14.663Z,99059.88
2023-09-17T00:07:42.095Z,99060.56
2023-09-17T00:10:09.165Z,99064.44
2023-09-17T00:12:35.985Z,99060.47
2023-09-17T00:15:04.592Z,99059.66
2023-09-17T00:17:31.592Z,99061.97
2023-09-17T00:19:58.539Z,99065.84
2023-09-17T00:22:26.039Z,99069.75
2023-09-17T00:24:52.879Z,99072.44
2023-09-17T00:27:19.596Z,99075.53
2023-09-17T00:29:46.199Z,99066.81
2023-09-17T00:32:12.777Z,99065.19
2023-09-17T00:34:39.598Z,99065.44
2023-09-17T00:37:06.247Z,99063.00
2023-09-17T00:39:32.863Z,99078.59
2023-09-17T00:41:59.828Z,99072.25
2023-09-17T00:44:26.625Z,99072.56
2023-09-17T00:46:53.491Z,99073.63
2023-09-17T00:49:20.849Z,99081.75
2023-09-17T00:51:47.837Z,99072.69
2023-09-17T00:54:15.241Z,99074.13
2023-09-17T00:56:42.051Z,99074.84
2023-09-17T00:59:09.140Z,99069.72
2023-09-17T01:01:36.898Z,99075.47
2023-09-17T01:04:04.477Z,99076.97
2023-09-17T01:06:31.629Z,99077.72
2023-09-17T01:08:59.425Z,99077.63
2023-09-17T01:11:26.944Z,99078.72
2023-09-17T01:14:00.117Z,99072.78
2023-09-17T01:16:28.070Z,99064.81
2023-09-17T01:18:55.366Z,99074.91
2023-09-17T01:21:37.156Z,99067.69
2023-09-17T01:24:28.009Z,99072.28
2023-09-17T01:27:04.891Z,99072.97
2023-09-17T01:29:39.266Z,99072.91
2023-09-17T01:32:07.136Z,99066.19
2023-09-17T01:34:39.039Z,99066.13
2023-09-17T01:37:19.804Z,99066.66
2023-09-17T01:39:54.868Z,99074.88
2023-09-17T01:42:23.513Z,99068.97
2023-09-17T01:44:51.282Z,99070.81
2023-09-17T01:47:20.662Z,99081.69
2023-09-17T01:49:47.816Z,99083.53
2023-09-17T01:52:16.124Z,99083.44
2023-09-17T01:54:42.790Z,99086.53
2023-09-17T01:57:09.515Z,99086.81
2023-09-17T01:59:36.153Z,99091.81
2023-09-17T02:02:03.699Z,99083.53
2023-09-17T02:04:30.458Z,99088.13
2023-09-17T02:06:57.067Z,99083.34
2023-09-17T02:09:23.671Z,99079.41
2023-09-17T02:11:51.331Z,99079.41
2023-09-17T02:14:17.924Z,99079.41
2023-09-17T02:16:44.929Z,99083.72
2023-09-17T02:19:11.632Z,99085.53
2023-09-17T02:21:38.215Z,99079.63
2023-09-17T02:24:05.183Z,99092.88
2023-09-17T02:26:31.843Z,99090.03
2023-09-17T02:28:58.467Z,99086.03
2023-09-17T02:31:25.435Z,99082.00
2023-09-17T02:33:52.337Z,99080.28
2023-09-17T02:36:19.376Z,99071.66
2023-09-17T02:38:46.687Z,99080.22
2023-09-17T02:41:13.691Z,99091.16
2023-09-17T02:43:40.745Z,99093.44
2023-09-17T02:46:07.667Z,99091.88
2023-09-17T02:48:34.340Z,99083.66
2023-09-17T02:51:01.120Z,99084.78
2023-09-17T02:53:27.702Z,99083.56
2023-09-17T02:55:55.954Z,99083.91
2023-09-17T02:58:22.634Z,99093.25
2023-09-17T03:00:49.208Z,99079.94
2023-09-17T03:03:16.838Z,99084.59
2023-09-17T03:05:49.602Z,99084.16
2023-09-17T03:08:16.247Z,99087.59
2023-09-17T03:10:43.919Z,99090.66
2023-09-17T03:13:11.726Z,99086.69
2023-09-17T03:15:38.414Z,99093.66
2023-09-17T03:18:05.660Z,99088.09
2023-09-17T03:20:34.906Z,99084.91
2023-09-17T03:23:05.915Z,99079.00
2023-09-17T03:25:33.278Z,99080.06
2023-09-17T03:28:03.374Z,99081.53
2023-09-17T03:30:29.994Z,99076.31
2023-09-17T03:33:04.416Z,99079.84
2023-09-17T03:35:32.169Z,99072.00
2023-09-17T03:37:58.794Z,99071.13
2023-09-17T03:40:26.050Z,99073.38
2023-09-17T03:42:53.623Z,99074.50
2023-09-17T03:45:20.316Z,99082.72
2023-09-17T03:47:48.721Z,99074.06
2023-09-17T03:50:20.770Z,99081.13
2023-09-17T03:52:50.521Z,99075.66
2023-09-17T03:55:17.554Z,99083.09
2023-09-17T03:57:44.307Z,99074.06
2023-09-17T04:00:14.517Z,99076.34
2023-09-17T04:02:43.301Z,99082.53
2023-09-17T04:05:15.711Z,99084.81
2023-09-17T04:07:44.322Z,99086.28
2023-09-17T04:10:13.387Z,99074.13
2023-09-17T04:12:42.053Z,99072.06
2023-09-17T04:15:14.662Z,99083.00
2023-09-17T04:17:41.607Z,99084.13
2023-09-17T04:20:12.379Z,99093.00
2023-09-17T04:22:39.219Z,99087.09
2023-09-17T04:25:10.953Z,99090.50
2023-09-17T04:27:38.728Z,99090.50
2023-09-17T04:30:08.504Z,99088.91
2023-09-17T04:32:39.644Z,99096.66
2023-09-17T04:35:08.636Z,99099.75
2023-09-17T04:37:36.417Z,99098.94
2023-09-17T04:40:05.635Z,99103.97
2023-09-17T04:42:32.891Z,99108.97
2023-09-17T04:44:59.505Z,99103.50
2023-09-17T04:47:26.322Z,99105.44
2023-09-17T04:49:52.987Z,99108.97
2023-09-17T04:52:19.691Z,99113.97
2023-09-17T04:54:46.541Z,99120.59
2023-09-17T04:57:13.118Z,99114.97
2023-09-17T04:59:39.715Z,99112.19
2023-09-17T05:02:06.468Z,99103.53
2023-09-17T05:04:33.169Z,99115.22
2023-09-17T05:07:00.179Z,99112.72
2023-09-17T05:09:29.527Z,99111.75
2023-09-17T05:11:56.124Z,99112.16
2023-09-17T05:14:22.852Z,99113.34
2023-09-17T05:16:49.467Z,99116.84
2023-09-17T05:19:16.152Z,99117.91
2023-09-17T05:21:42.764Z,99105.16
2023-09-17T05:24:09.475Z,99114.97
2023-09-17T05:26:36.033Z,99113.00
2023-09-17T05:29:02.770Z,99113.38
2023-09-17T05:31:29.613Z,99115.41
2023-09-17T05:33:56.291Z,99107.28
2023-09-17T05:36:22.954Z,99105.72
2023-09-17T05:38:49.525Z,99114.38
2023-09-17T05:41:16.654Z,99125.34
2023-09-17T05:43:43.358Z,99123.03
2023-09-17T05:46:10.055Z,99118.44
2023-09-17T05:48:36.750Z,99123.56
2023-09-17T05:51:04.816Z,99128.75
2023-09-17T05:53:32.397Z,99122.59
2023-09-17T05:55:59.246Z,99123.75
2023-09-17T05:58:25.963Z,99123.47
2023-09-17T06:00:54.557Z,99132.97
2023-09-17T06:03:21.328Z,99132.28
2023-09-17T06:05:48.019Z,99126.06
2023-09-17T06:08:14.700Z,99126.91
2023-09-17T06:10:41.308Z,99135.66
2023-09-17T06:13:08.277Z,99130.63
2023-09-17T06:15:35.001Z,99133.50
2023-09-17T06:18:02.230Z,99127.28
2023-09-17T06:20:29.242Z,99135.94
2023-09-17T06:22:55.881Z,99142.72
2023-09-17T06:25:24.877Z,99131.84
2023-09-17T06:27:51.608Z,99125.94
2023-09-17T06:30:19.054Z,99129.09
2023-09-17T06:32:46.675Z,99124.47
2023-09-17T06:35:13.411Z,99127.69
2023-09-17T06:37:40.414Z,99132.13
2023-09-17T06:40:09.630Z,99140.03
2023-09-17T06:42:36.304Z,99132.59
2023-09-17T06:45:03.179Z,99147.25
2023-09-17T06:47:29.938Z,99141.44
2023-09-17T06:49:56.736Z,99132.09
2023-09-17T06:52:26.724Z,99142.38
2023-09-17T06:54:53.982Z,99140.94
2023-09-17T06:57:20.585Z,99131.56
2023-09-17T06:59:48.117Z,99138.63
2023-09-17T07:02:14.751Z,99138.63
2023-09-17T07:04:41.555Z,99139.34
2023-09-17T07:07:08.429Z,99139.34
2023-09-17T07:09:35.315Z,99139.50
2023-09-17T07:12:01.962Z,99135.63
2023-09-17T07:14:28.578Z,99141.88
2023-09-17T07:16:55.439Z,99140.44
2023-09-17T07:19:22.246Z,99136.91
2023-09-17T07:21:48.837Z,99139.34
2023-09-17T07:24:15.553Z,99131.09
2023-09-17T07:26:43.621Z,99131.72
2023-09-17T07:29:10.696Z,99133.03
2023-09-17T07:31:37.440Z,99139.34
2023-09-17T07:34:04.845Z,99130.81
2023-09-17T07:36:31.422Z,99133.09
2023-09-17T07:38:57.984Z,99132.88
2023-09-17T07:41:24.693Z,99128.13
2023-09-17T07:43:51.734Z,99132.09
2023-09-17T07:46:18.589Z,99127.44
2023-09-17T07:48:47.449Z,99128.25
2023-09-17T07:51:14.255Z,99139.25
2023-09-17T07:53:40.880Z,99135.22
2023-09-17T07:56:07.629Z,99135.84
2023-09-17T07:58:34.814Z,99145.03
2023-09-17T08:01:01.490Z,99142.09
2023-09-17T08:03:28.158Z,99132.69
2023-09-17T08:05:55.169Z,99139.44
2023-09-17T08:08:21.911Z,99132.47
2023-09-17T08:10:50.696Z,99130.69
2023-09-17T08:13:17.542Z,99134.72
2023-09-17T08:15:44.783Z,99129.81
2023-09-17T08:18:11.468Z,99137.50
2023-09-17T08:20:38.140Z,99138.09
2023-09-17T08:23:05.100Z,99135.72
2023-09-17T08:25:32.135Z,99128.25
2023-09-17T08:28:00.921Z,99128.31
2023-09-17T08:30:27.666Z,99133.47
2023-09-17T08:32:54.441Z,99137.50
2023-09-17T08:35:21.142Z,99130.47
2023-09-17T08:37:49.503Z,99137.22
2023-09-17T08:40:19.228Z,99134.66
2023-09-17T08:42:47.207Z,99132.38
2023-09-17T08:45:14.908Z,99141.22
2023-09-17T08:47:41.671Z,99142.88
2023-09-17T08:50:10.548Z,99148.28
2023-09-17T08:52:45.069Z,99139.63
2023-09-17T08:55:12.764Z,99147.63
2023-09-17T08:57:43.317Z,99144.97
2023-09-17T09:00:12.258Z,99142.38
2023-09-17T09:02:49.942Z,99141.72
2023-09-17T09:05:18.194Z,99128.34
2023-09-17T09:07:48.766Z,99133.03
2023-09-17T09:10:16.243Z,99130.75
2023-09-17T09:12:44.117Z,99134.00
2023-09-17T09:15:11.647Z,99128.50
2023-09-17T09:17:41.469Z,99125.00
2023-09-17T09:20:12.640Z,99122.22
2023-09-17T09:22:39.828Z,99115.09
2023-09-17T09:25:10.041Z,99113.94
2023-09-17T09:27:38.739Z,99112.44
2023-09-17T09:30:10.948Z,99114.53
2023-09-17T09:32:38.811Z,99113.78
2023-09-17T09:35:06.953Z,99112.25
2023-09-17T09:37:35.752Z,99110.31
2023-09-17T09:40:03.977Z,99113.09
2023-09-17T09:42:31.772Z,99106.81
2023-09-17T09:44:58.539Z,99109.19
2023-09-17T09:47:25.273Z,99106.03
2023-09-17T09:49:52.426Z,99102.09
2023-09-17T09:52:22.383Z,99102.09
2023-09-17T09:54:49.031Z,99098.13
2023-09-17T09:57:20.442Z,99098.97
2023-09-17T09:59:49.360Z,99095.03
2023-09-17T10:02:17.606Z,99090.28
2023-09-17T10:04:47.552Z,99085.53
2023-09-17T10:07:16.392Z,99080.78
2023-09-17T10:09:43.987Z,99080.44
2023-09-17T10:12:10.786Z,99087.13
2023-09-17T10:14:38.976Z,99090.66
2023-09-17T10:17:09.284Z,99084.69
2023-09-17T10:19:36.631Z,99093.72
2023-09-17T10:22:09.314Z,99089.38
2023-09-17T10:24:39.603Z,99090.22
2023-09-17T10:27:10.006Z,99098.88
2023-09-17T10:29:38.022Z,99096.88
2023-09-17T10:32:05.273Z,99094.53
2023-09-17T10:34:34.471Z,99097.25
2023-09-17T10:37:04.003Z,99098.81
2023-09-17T10:39:32.211Z,99090.50
2023-09-17T10:42:02.396Z,99084.56
2023-09-17T10:44:30.435Z,99072.66
2023-09-17T10:47:00.770Z,99072.66
2023-09-17T10:49:28.314Z,99076.53
2023-09-17T10:51:56.651Z,99063.44
2023-09-17T10:54:23.339Z,99072.91
2023-09-17T10:56:50.716Z,99065.66
2023-09-17T10:59:19.156Z,99069.13
2023-09-17T11:01:47.509Z,99066.63
2023-09-17T11:04:22.218Z,99072.06
2023-09-17T11:06:51.698Z,99072.41
2023-09-17T11:09:19.353Z,99067.97
2023-09-17T11:11:46.378Z,99068.34
2023-09-17T11:14:15.400Z,99064.00
2023-09-17T11:16:42.388Z,99061.19
2023-09-17T11:19:22.691Z,99056.44
2023-09-17T11:22:01.645Z,99056.94
2023-09-17T11:24:28.782Z,99059.31
2023-09-17T11:26:58.274Z,99052.19
2023-09-17T11:29:42.262Z,99056.94
2023-09-17T11:32:09.442Z,99059.63
2023-09-17T11:34:39.700Z,99055.19
2023-09-17T11:37:07.266Z,99063.13
2023-09-17T11:39:37.000Z,99063.50
2023-09-17T11:42:07.304Z,99060.59
2023-09-17T11:44:36.582Z,99058.94
2023-09-17T11:47:05.809Z,99051.00
2023-09-17T11:49:33.994Z,99039.50
2023-09-17T11:52:01.297Z,99043.38
2023-09-17T11:54:41.952Z,99054.00
2023-09-17T11:57:09.250Z,99036.41
2023-09-17T11:59:39.745Z,99033.88
2023-09-17T12:02:09.787Z,99030.19
2023-09-17T12:04:37.326Z,99030.44
2023-09-17T12:07:09.155Z,99027.19
2023-09-17T12:09:47.730Z,99021.56
2023-09-17T12:12:14.696Z,99019.53
2023-09-17T12:14:41.860Z,99013.50
2023-09-17T12:17:08.581Z,99003.84
2023-09-17T12:19:35.464Z,98995.78
2023-09-17T12:22:02.342Z,98997.75
2023-09-17T12:24:36.004Z,99000.41
2023-09-17T12:27:12.443Z,98994.28
2023-09-17T12:29:39.867Z,98992.16
2023-09-17T12:32:07.344Z,98996.03
2023-09-17T12:34:38.384Z,98983.34
2023-09-17T12:37:08.458Z,98983.34
2023-09-17T12:39:35.474Z,98984.09
2023-09-17T12:42:02.140Z,98986.47
2023-09-17T12:44:29.404Z,98981.47
2023-09-17T12:46:56.482Z,98978.84
2023-09-17T12:49:24.220Z,98975.97
2023-09-17T12:51:54.102Z,98975.13
2023-09-17T12:54:22.875Z,98970.16
2023-09-17T12:56:51.896Z,98966.66
2023-09-17T12:59:39.316Z,98970.53
2023-09-17T13:02:07.279Z,98968.72
2023-09-17T13:04:34.746Z,98970.09
2023-09-17T13:07:03.568Z,98955.13
2023-09-17T13:09:32.852Z,98942.75
2023-09-17T13:12:01.722Z,98955.34
2023-09-17T13:14:30.776Z,98944.63
2023-09-17T13:16:57.667Z,98944.63
2023-09-17T13:19:24.641Z,98946.06
2023-09-17T13:21:51.420Z,98949.09
2023-09-17T13:24:19.429Z,98961.72
2023-09-17T13:26:46.125Z,98952.94
2023-09-17T13:29:13.089Z,98954.78
2023-09-17T13:31:43.168Z,98954.38
2023-09-17T13:34:11.529Z,98946.53
2023-09-17T13:36:38.894Z,98944.38
2023-09-17T13:39:05.706Z,98931.91
2023-09-17T13:41:32.468Z,98935.03
2023-09-17T13:43:59.502Z,98935.22
2023-09-17T13:46:26.326Z,98922.56
2023-09-17T13:48:53.083Z,98920.88
2023-09-17T13:51:19.942Z,98924.53
2023-09-17T13:53:46.553Z,98927.50
2023-09-17T13:56:13.232Z,98922.09
2023-09-17T13:58:39.913Z,98906.78
2023-09-17T14:01:07.257Z,98907.75
2023-09-17T14:03:34.320Z,98901.19
2023-09-17T14:06:00.928Z,98900.75
2023-09-17T14:08:27.633Z,98894.41
2023-09-17T14:10:54.314Z,98900.06
2023-09-17T14:13:20.967Z,98889.19
2023-09-17T14:15:47.676Z,98896.00
2023-09-17T14:18:17.763Z,98899.47
2023-09-17T14:20:44.352Z,98901.44
2023-09-17T14:23:11.134Z,98894.44
2023-09-17T14:25:37.785Z,98882.94
2023-09-17T14:28:04.674Z,98882.44
2023-09-17T14:30:31.355Z,98877.44
2023-09-17T14:32:59.176Z,98874.63
2023-09-17T14:35:27.595Z,98876.38
2023-09-17T14:37:55.576Z,98869.44
2023-09-17T14:40:22.319Z,98868.28
2023-09-17T14:42:49.095Z,98868.00
2023-09-17T14:45:15.738Z,98874.44
2023-09-17T14:47:43.743Z,98860.81
2023-09-17T14:50:12.455Z,98866.56
2023-09-17T14:52:39.452Z,98855.13
2023-09-17T14:55:07.076Z,98852.47
2023-09-17T14:57:37.089Z,98858.78
2023-09-17T15:00:06.121Z,98850.28
2023-09-17T15:02:33.615Z,98848.13
2023-09-17T15:05:01.433Z,98853.00
2023-09-17T15:07:28.248Z,98843.41
2023-09-17T15:09:54.945Z,98842.06
2023-09-17T15:12:21.609Z,98834.50
2023-09-17T15:14:48.410Z,98840.00
2023-09-17T15:17:15.150Z,98845.38
2023-09-17T15:19:42.077Z,98845.09
2023-09-17T15:22:08.786Z,98835.75
2023-09-17T15:24:35.417Z,98837.63
2023-09-17T15:27:02.031Z,98843.91
2023-09-17T15:29:30.194Z,98837.47
2023-09-17T15:31:57.240Z,98834.91
2023-09-17T15:34:24.479Z,98832.56
2023-09-17T15:36:52.324Z,98836.94
2023-09-17T15:39:19.890Z,98833.19
2023-09-17T15:41:46.511Z,98819.16
2023-09-17T15:44:16.012Z,98824.06
2023-09-17T15:46:43.530Z,98825.50
2023-09-17T15:49:10.877Z,98818.72
2023-09-17T15:51:37.815Z,98818.25
2023-09-17T15:54:05.178Z,98814.16
2023-09-17T15:56:32.403Z,98812.50
2023-09-17T15:58:59.096Z,98807.13
2023-09-17T16:01:25.892Z,98807.16
2023-09-17T16:03:52.824Z,98809.97
2023-09-17T16:06:24.478Z,98801.84
2023-09-17T16:08:54.768Z,98805.31
2023-09-17T16:11:21.603Z,98795.31
2023-09-17T16:13:48.433Z,98799.34
2023-09-17T16:16:15.245Z,98796.19
2023-09-17T16:18:41.902Z,98799.38
2023-09-17T16:21:09.026Z,98806.00
2023-09-17T16:23:35.961Z,98805.34
2023-09-17T16:26:03.482Z,98801.09
2023-09-17T16:28:30.299Z,98801.31
2023-09-17T16:30:56.948Z,98799.81
2023-09-17T16:33:23.807Z,98790.88
2023-09-17T16:35:51.288Z,98795.25
2023-09-17T16:38:18.073Z,98795.91
2023-09-17T16:40:46.092Z,98801.38
2023-09-17T16:43:15.746Z,98798.06
2023-09-17T16:45:44.218Z,98794.91
2023-09-17T16:48:12.048Z,98794.34
2023-09-17T16:50:39.906Z,98798.16
2023-09-17T16:53:06.849Z,98794.78
2023-09-17T16:55:35.209Z,98798.88
2023-09-17T16:58:01.965Z,98799.28
2023-09-17T17:00:28.567Z,98799.63
2023-09-17T17:02:55.398Z,98802.31
2023-09-17T17:05:22.462Z,98796.59
2023-09-17T17:07:49.124Z,98794.41
2023-09-17T17:10:16.153Z,98799.34
2023-09-17T17:12:42.748Z,98798.72
2023-09-17T17:15:09.581Z,98792.63
2023-09-17T17:17:36.374Z,98796.03
2023-09-17T17:20:04.999Z,98784.41
2023-09-17T17:22:43.136Z,98788.16
2023-09-17T17:25:10.540Z,98791.44
2023-09-17T17:27:37.244Z,98787.22
2023-09-17T17:30:05.794Z,98787.34
2023-09-17T17:32:33.109Z,98787.81
2023-09-17T17:35:00.018Z,98780.38
2023-09-17T17:37:27.084Z,98778.91
2023-09-17T17:39:58.398Z,98776.66
2023-09-17T17:42:25.679Z,98772.78
2023-09-17T17:44:52.341Z,98770.47
2023-09-17T17:47:19.547Z,98771.28
2023-09-17T17:49:47.823Z,98770.19
2023-09-17T17:52:14.454Z,98769.03
2023-09-17T17:54:41.021Z,98765.53
2023-09-17T17:57:08.802Z,98769.50
2023-09-17T17:59:35.447Z,98774.25
2023-09-17T18:02:02.166Z,98771.53
2023-09-17T18:04:28.805Z,98765.22
2023-09-17T18:06:57.623Z,98758.94
2023-09-17T18:09:25.600Z,98762.09
2023-09-17T18:11:52.189Z,98758.97
2023-09-17T18:14:18.796Z,98762.13
2023-09-17T18:16:45.670Z,98761.34
2023-09-17T18:19:12.532Z,98757.78
2023-09-17T18:21:39.106Z,98763.72
2023-09-17T18:24:06.114Z,98762.13
2023-09-17T18:26:33.159Z,98753.84
2023-09-17T18:28:59.859Z,98754.25
2023-09-17T18:31:26.556Z,98766.84
2023-09-17T18:33:53.354Z,98771.16
2023-09-17T18:36:20.912Z,98770.38
2023-09-17T18:38:49.470Z,98773.94
2023-09-17T18:41:16.182Z,98773.16
2023-09-17T18:43:42.771Z,98766.81
2023-09-17T18:46:09.399Z,98758.97
2023-09-17T18:48:36.076Z,98763.69
2023-09-17T18:51:02.762Z,98764.47
2023-09-17T18:53:29.413Z,98763.69
2023-09-17T18:55:56.091Z,98765.63
2023-09-17T18:58:23.214Z,98762.09
2023-09-17T19:00:49.951Z,98755.38
2023-09-17T19:03:16.808Z,98764.44
2023-09-17T19:05:45.348Z,98766.38
2023-09-17T19:08:11.982Z,98759.28
2023-09-17T19:10:38.922Z,98757.69
2023-09-17T19:13:05.599Z,98762.78
2023-09-17T19:15:32.371Z,98764.75
2023-09-17T19:17:58.985Z,98759.63
2023-09-17T19:20:26.061Z,98757.66
2023-09-17T19:22:52.695Z,98761.19
2023-09-17T19:25:19.437Z,98760.38
2023-09-17T19:27:46.093Z,98759.56
2023-09-17T19:30:13.403Z,98761.16
2023-09-17T19:32:40.108Z,98763.50
2023-09-17T19:35:07.089Z,98770.97
2023-09-17T19:37:33.761Z,98757.94
2023-09-17T19:40:00.348Z,98751.66
2023-09-17T19:42:29.100Z,98749.25
2023-09-17T19:44:56.440Z,98750.81
2023-09-17T19:47:23.123Z,98746.09
2023-09-17T19:49:49.747Z,98738.16
2023-09-17T19:52:16.565Z,98739.72
2023-09-17T19:54:45.230Z,98746.38
2023-09-17T19:57:12.019Z,98744.41
2023-09-17T19:59:38.653Z,98738.09
2023-09-17T20:02:05.404Z,98742.41
2023-09-17T20:04:32.598Z,98730.22
2023-09-17T20:07:01.204Z,98733.31
2023-09-17T20:09:28.428Z,98721.91
2023-09-17T20:11:56.515Z,98723.84
2023-09-17T20:14:23.490Z,98721.91
2023-09-17T20:16:50.223Z,98723.47
2023-09-17T20:19:16.908Z,98725.41
2023-09-17T20:21:43.564Z,98715.19
2023-09-17T20:24:10.190Z,98712.81
2023-09-17T20:26:37.957Z,98706.53
2023-09-17T20:29:05.580Z,98699.44
2023-09-17T20:31:32.510Z,98706.88
2023-09-17T20:33:59.198Z,98713.13
2023-09-17T20:36:25.835Z,98705.66
2023-09-17T20:38:52.869Z,98726.84
2023-09-17T20:41:19.738Z,98723.69
2023-09-17T20:43:46.527Z,98726.03
2023-09-17T20:46:13.293Z,98726.00
2023-09-17T20:48:39.925Z,98724.03
2023-09-17T20:51:06.594Z,98725.97
2023-09-17T20:53:33.449Z,98727.53
2023-09-17T20:56:00.376Z,98732.25
2023-09-17T20:58:27.110Z,98732.25
2023-09-17T21:00:53.877Z,98718.91
2023-09-17T21:03:20.711Z,98725.56
2023-09-17T21:05:48.731Z,98715.75
2023-09-17T21:08:15.992Z,98721.25
2023-09-17T21:10:43.911Z,98713.00
2023-09-17T21:13:12.015Z,98713.72
2023-09-17T21:15:39.307Z,98723.16
2023-09-17T21:18:07.079Z,98700.72
2023-09-17T21:20:34.068Z,98709.38
2023-09-17T21:23:01.439Z,98699.53
2023-09-17T21:25:29.030Z,98696.78
2023-09-17T21:27:55.755Z,98694.03
2023-09-17T21:30:23.873Z,98675.16
2023-09-17T21:32:50.575Z,98668.50
2023-09-17T21:35:17.749Z,98670.81
2023-09-17T21:37:44.609Z,98674.72
2023-09-17T21:40:12.240Z,98669.25
2023-09-17T21:42:39.071Z,98671.22
2023-09-17T21:45:06.389Z,98662.97
2023-09-17T21:47:33.373Z,98664.50
2023-09-17T21:50:01.386Z,98658.63
2023-09-17T21:52:31.467Z,98658.22
2023-09-17T21:54:58.914Z,98659.00
2023-09-17T21:57:25.922Z,98653.50
2023-09-17T21:59:53.380Z,98640.94
2023-09-17T22:02:21.013Z,98637.00
2023-09-17T22:04:47.855Z,98636.22
2023-09-17T22:07:14.678Z,98632.31
2023-09-17T22:09:41.349Z,98629.16
2023-09-17T22:12:08.854Z,98620.91
2023-09-17T22:14:38.207Z,98622.09
2023-09-17T22:17:04.888Z,98624.03
2023-09-17T22:19:31.585Z,98617.31
2023-09-17T22:21:58.275Z,98606.31
2023-09-17T22:24:25.170Z,98598.41
2023-09-17T22:26:52.127Z,98607.03
2023-09-17T22:29:18.939Z,98596.78
2023-09-17T22:31:45.872Z,98609.72
2023-09-17T22:34:12.740Z,98610.91
2023-09-17T22:36:40.542Z,98605.38
2023-09-17T22:39:07.428Z,98601.44
2023-09-17T22:41:34.497Z,98599.03
2023-09-17T22:44:16.150Z,98588.81
2023-09-17T22:46:47.703Z,98594.28
2023-09-17T22:49:14.404Z,98585.25
2023-09-17T22:51:41.169Z,98586.44
2023-09-17T22:54:07.880Z,98574.69
2023-09-17T22:56:34.646Z,98568.41
2023-09-17T22:59:01.359Z,98560.94
2023-09-17T23:01:28.004Z,98559.00
2023-09-17T23:03:54.651Z,98542.91
2023-09-17T23:06:23.267Z,98541.69
2023-09-17T23:08:50.089Z,98542.81
2023-09-17T23:11:16.907Z,98541.22
2023-09-17T23:13:43.604Z,98531.38
2023-09-17T23:16:10.302Z,98533.31
2023-09-17T23:18:36.923Z,98523.44
2023-09-17T23:21:05.519Z,98527.38
2023-09-17T23:23:32.637Z,98515.63
2023-09-17T23:26:02.524Z,98520.34
2023-09-17T23:28:34.518Z,98523.53
2023-09-17T23:31:07.750Z,98518.84
2023-09-17T23:33:34.567Z,98533.78
2023-09-17T23:36:01.878Z,98566.78
2023-09-17T23:38:29.051Z,98617.03
2023-09-17T23:40:56.557Z,98592.31
2023-09-17T23:43:23.828Z,98544.31
2023-09-17T23:45:50.489Z,98509.00
2023-09-17T23:48:17.109Z,98504.59
2023-09-17T23:50:44.127Z,98507.69
2023-09-17T23:53:10.916Z,98510.81
2023-09-17T23:55:37.593Z,98533.13
2023-09-17T23:58:04.476Z,98564.81
